sensor_id;sensor_type;location;lat;lon;timestamp;P1;durP1;ratioP1;P2;durP2;ratioP2
1995;SDS011;38556;47.068;15.408;2023-04-03T00:02:20;18.48;;;17.67;;
1995;SDS011;38556;47.068;15.408;2023-04-03T00:04:47;19.10;;;17.92;;
1995;SDS011;38556;47.068;15.408;2023-04-03T00:07:15;17.90;;;17.10;;
1995;SDS011;38556;47.068;15.408;2023-04-03T00:09:42;18.23;;;17.45;;
1995;SDS011;38556;47.068;15.408;2023-04-03T00:12:09;18.95;;;18.05;;
1995;SDS011;38556;47.068;15.408;2023-04-03T00:14:37;18.52;;;17.73;;
1995;SDS011;38556;47.068;15.408;2023-04-03T00:17:06;18.10;;;17.30;;
1995;SDS011;38556;47.068;15.408;2023-04-03T00:19:33;18.90;;;17.95;;
1995;SDS011;38556;47.068;15.408;2023-04-03T00:22:01;18.40;;;17.40;;
1995;SDS011;38556;47.068;15.408;2023-04-03T00:24:28;18.70;;;17.90;;
1995;SDS011;38556;47.068;15.408;2023-04-03T00:26:55;18.58;;;17.67;;
1995;SDS011;38556;47.068;15.408;2023-04-03T00:29:22;18.30;;;17.50;;
1995;SDS011;38556;47.068;15.408;2023-04-03T00:31:49;18.30;;;17.50;;
1995;SDS011;38556;47.068;15.408;2023-04-03T00:34:18;18.30;;;17.40;;
1995;SDS011;38556;47.068;15.408;2023-04-03T00:36:46;18.80;;;17.90;;
1995;SDS011;38556;47.068;15.408;2023-04-03T00:39:13;18.95;;;18.05;;
1995;SDS011;38556;47.068;15.408;2023-04-03T00:41:40;18.50;;;17.60;;
1995;SDS011;38556;47.068;15.408;2023-04-03T00:44:20;17.80;;;17.00;;
1995;SDS011;38556;47.068;15.408;2023-04-03T00:46:49;18.00;;;17.20;;
1995;SDS011;38556;47.068;15.408;2023-04-03T00:49:16;19.00;;;18.10;;
1995;SDS011;38556;47.068;15.408;2023-04-03T00:51:45;19.17;;;18.27;;
1995;SDS011;38556;47.068;15.408;2023-04-03T00:54:13;18.27;;;17.40;;
1995;SDS011;38556;47.068;15.408;2023-04-03T00:56:40;17.92;;;17.13;;
1995;SDS011;38556;47.068;15.408;2023-04-03T00:59:09;18.70;;;17.80;;
1995;SDS011;38556;47.068;15.408;2023-04-03T01:01:39;18.65;;;17.75;;
1995;SDS011;38556;47.068;15.408;2023-04-03T01:04:24;18.42;;;17.58;;
1995;SDS011;38556;47.068;15.408;2023-04-03T01:06:55;18.30;;;17.50;;
1995;SDS011;38556;47.068;15.408;2023-04-03T01:09:23;18.70;;;17.80;;
1995;SDS011;38556;47.068;15.408;2023-04-03T01:11:50;18.50;;;17.60;;
1995;SDS011;38556;47.068;15.408;2023-04-03T01:14:18;18.73;;;17.83;;
1995;SDS011;38556;47.068;15.408;2023-04-03T01:16:51;18.90;;;18.00;;
1995;SDS011;38556;47.068;15.408;2023-04-03T01:19:19;18.45;;;17.63;;
1995;SDS011;38556;47.068;15.408;2023-04-03T01:21:54;19.33;;;18.33;;
1995;SDS011;38556;47.068;15.408;2023-04-03T01:24:32;18.75;;;17.85;;
1995;SDS011;38556;47.068;15.408;2023-04-03T01:27:01;19.20;;;18.20;;
1995;SDS011;38556;47.068;15.408;2023-04-03T01:29:30;18.48;;;17.63;;
1995;SDS011;38556;47.068;15.408;2023-04-03T01:31:59;18.63;;;17.80;;
1995;SDS011;38556;47.068;15.408;2023-04-03T01:34:27;19.40;;;18.42;;
1995;SDS011;38556;47.068;15.408;2023-04-03T01:36:56;18.90;;;18.00;;
1995;SDS011;38556;47.068;15.408;2023-04-03T01:39:24;18.67;;;17.77;;
1995;SDS011;38556;47.068;15.408;2023-04-03T01:41:51;18.80;;;17.90;;
1995;SDS011;38556;47.068;15.408;2023-04-03T01:44:19;18.88;;;18.00;;
1995;SDS011;38556;47.068;15.408;2023-04-03T01:46:46;18.80;;;17.90;;
1995;SDS011;38556;47.068;15.408;2023-04-03T01:49:15;18.70;;;17.70;;
1995;SDS011;38556;47.068;15.408;2023-04-03T01:51:42;18.15;;;17.35;;
1995;SDS011;38556;47.068;15.408;2023-04-03T01:54:09;19.10;;;18.20;;
1995;SDS011;38556;47.068;15.408;2023-04-03T01:56:37;18.75;;;17.65;;
1995;SDS011;38556;47.068;15.408;2023-04-03T01:59:04;18.60;;;17.70;;
1995;SDS011;38556;47.068;15.408;2023-04-03T02:01:32;19.00;;;18.00;;
1995;SDS011;38556;47.068;15.408;2023-04-03T02:03:59;18.65;;;17.80;;
1995;SDS011;38556;47.068;15.408;2023-04-03T02:06:28;19.15;;;18.25;;
1995;SDS011;38556;47.068;15.408;2023-04-03T02:08:55;19.48;;;18.58;;
1995;SDS011;38556;47.068;15.408;2023-04-03T02:11:22;20.15;;;19.20;;
1995;SDS011;38556;47.068;15.408;2023-04-03T02:13:50;20.75;;;19.65;;
1995;SDS011;38556;47.068;15.408;2023-04-03T02:16:17;20.67;;;19.77;;
1995;SDS011;38556;47.068;15.408;2023-04-03T02:18:44;19.63;;;18.83;;
1995;SDS011;38556;47.068;15.408;2023-04-03T02:21:11;19.60;;;18.70;;
1995;SDS011;38556;47.068;15.408;2023-04-03T02:23:40;20.02;;;19.05;;
1995;SDS011;38556;47.068;15.408;2023-04-03T02:26:08;19.08;;;18.17;;
1995;SDS011;38556;47.068;15.408;2023-04-03T02:28:37;20.45;;;19.55;;
1995;SDS011;38556;47.068;15.408;2023-04-03T02:31:05;20.00;;;19.20;;
1995;SDS011;38556;47.068;15.408;2023-04-03T02:33:33;19.30;;;18.40;;
1995;SDS011;38556;47.068;15.408;2023-04-03T02:36:01;19.13;;;18.33;;
1995;SDS011;38556;47.068;15.408;2023-04-03T02:38:29;18.98;;;18.17;;
1995;SDS011;38556;47.068;15.408;2023-04-03T02:41:00;19.65;;;18.65;;
1995;SDS011;38556;47.068;15.408;2023-04-03T02:43:28;19.80;;;18.90;;
1995;SDS011;38556;47.068;15.408;2023-04-03T02:45:55;20.05;;;19.15;;
1995;SDS011;38556;47.068;15.408;2023-04-03T02:48:23;19.30;;;18.45;;
1995;SDS011;38556;47.068;15.408;2023-04-03T02:50:50;19.90;;;19.00;;
1995;SDS011;38556;47.068;15.408;2023-04-03T02:53:18;19.70;;;18.80;;
1995;SDS011;38556;47.068;15.408;2023-04-03T02:55:46;20.05;;;19.15;;
1995;SDS011;38556;47.068;15.408;2023-04-03T02:58:14;19.70;;;18.80;;
1995;SDS011;38556;47.068;15.408;2023-04-03T03:00:42;20.00;;;19.10;;
1995;SDS011;38556;47.068;15.408;2023-04-03T03:03:10;20.42;;;19.52;;
1995;SDS011;38556;47.068;15.408;2023-04-03T03:05:38;18.90;;;18.05;;
1995;SDS011;38556;47.068;15.408;2023-04-03T03:08:05;18.70;;;17.90;;
1995;SDS011;38556;47.068;15.408;2023-04-03T03:10:33;19.42;;;18.63;;
1995;SDS011;38556;47.068;15.408;2023-04-03T03:13:00;19.77;;;18.88;;
1995;SDS011;38556;47.068;15.408;2023-04-03T03:15:29;19.20;;;18.30;;
1995;SDS011;38556;47.068;15.408;2023-04-03T03:17:57;19.55;;;18.60;;
1995;SDS011;38556;47.068;15.408;2023-04-03T03:20:24;19.83;;;18.83;;
1995;SDS011;38556;47.068;15.408;2023-04-03T03:22:54;18.60;;;17.80;;
1995;SDS011;38556;47.068;15.408;2023-04-03T03:25:21;19.05;;;18.23;;
1995;SDS011;38556;47.068;15.408;2023-04-03T03:27:48;18.35;;;17.45;;
1995;SDS011;38556;47.068;15.408;2023-04-03T03:30:16;18.77;;;17.85;;
1995;SDS011;38556;47.068;15.408;2023-04-03T03:32:44;18.90;;;18.10;;
1995;SDS011;38556;47.068;15.408;2023-04-03T03:35:11;19.10;;;18.20;;
1995;SDS011;38556;47.068;15.408;2023-04-03T03:37:39;18.58;;;17.60;;
1995;SDS011;38556;47.068;15.408;2023-04-03T03:40:07;18.90;;;18.00;;
1995;SDS011;38556;47.068;15.408;2023-04-03T03:42:36;19.02;;;18.13;;
1995;SDS011;38556;47.068;15.408;2023-04-03T03:45:04;18.63;;;17.83;;
1995;SDS011;38556;47.068;15.408;2023-04-03T03:47:31;18.85;;;18.05;;
1995;SDS011;38556;47.068;15.408;2023-04-03T03:50:00;18.15;;;17.35;;
1995;SDS011;38556;47.068;15.408;2023-04-03T03:52:27;17.98;;;17.27;;
1995;SDS011;38556;47.068;15.408;2023-04-03T03:54:55;18.15;;;17.35;;
1995;SDS011;38556;47.068;15.408;2023-04-03T03:57:22;18.75;;;17.80;;
1995;SDS011;38556;47.068;15.408;2023-04-03T03:59:52;18.08;;;17.27;;
1995;SDS011;38556;47.068;15.408;2023-04-03T04:02:19;21.35;;;20.45;;
1995;SDS011;38556;47.068;15.408;2023-04-03T04:04:46;21.52;;;20.63;;
1995;SDS011;38556;47.068;15.408;2023-04-03T04:07:16;20.10;;;19.30;;
1995;SDS011;38556;47.068;15.408;2023-04-03T04:09:43;20.20;;;19.30;;
1995;SDS011;38556;47.068;15.408;2023-04-03T04:12:11;20.55;;;19.75;;
1995;SDS011;38556;47.068;15.408;2023-04-03T04:14:38;20.15;;;19.35;;
1995;SDS011;38556;47.068;15.408;2023-04-03T04:17:05;21.20;;;20.17;;
1995;SDS011;38556;47.068;15.408;2023-04-03T04:19:33;20.00;;;19.20;;
1995;SDS011;38556;47.068;15.408;2023-04-03T04:22:00;20.80;;;19.95;;
1995;SDS011;38556;47.068;15.408;2023-04-03T04:24:29;20.75;;;19.85;;
1995;SDS011;38556;47.068;15.408;2023-04-03T04:26:56;20.52;;;19.63;;
1995;SDS011;38556;47.068;15.408;2023-04-03T04:29:24;20.08;;;19.17;;
1995;SDS011;38556;47.068;15.408;2023-04-03T04:31:51;20.77;;;19.88;;
1995;SDS011;38556;47.068;15.408;2023-04-03T04:34:19;20.70;;;19.70;;
1995;SDS011;38556;47.068;15.408;2023-04-03T04:36:46;21.42;;;20.52;;
1995;SDS011;38556;47.068;15.408;2023-04-03T04:39:13;20.60;;;19.70;;
1995;SDS011;38556;47.068;15.408;2023-04-03T04:41:42;22.17;;;21.17;;
1995;SDS011;38556;47.068;15.408;2023-04-03T04:44:09;20.33;;;19.52;;
1995;SDS011;38556;47.068;15.408;2023-04-03T04:46:36;21.20;;;20.30;;
1995;SDS011;38556;47.068;15.408;2023-04-03T04:49:04;20.50;;;19.50;;
1995;SDS011;38556;47.068;15.408;2023-04-03T04:51:31;19.63;;;18.70;;
1995;SDS011;38556;47.068;15.408;2023-04-03T04:53:59;21.92;;;20.80;;
1995;SDS011;38556;47.068;15.408;2023-04-03T04:56:26;21.50;;;20.50;;
1995;SDS011;38556;47.068;15.408;2023-04-03T04:58:55;21.70;;;20.70;;
1995;SDS011;38556;47.068;15.408;2023-04-03T05:01:22;20.13;;;19.15;;
1995;SDS011;38556;47.068;15.408;2023-04-03T05:03:49;20.50;;;19.58;;
1995;SDS011;38556;47.068;15.408;2023-04-03T05:06:16;20.48;;;19.58;;
1995;SDS011;38556;47.068;15.408;2023-04-03T05:08:44;20.80;;;19.98;;
1995;SDS011;38556;47.068;15.408;2023-04-03T05:11:11;21.02;;;20.02;;
1995;SDS011;38556;47.068;15.408;2023-04-03T05:13:39;19.48;;;18.67;;
1995;SDS011;38556;47.068;15.408;2023-04-03T05:16:07;18.75;;;17.95;;
1995;SDS011;38556;47.068;15.408;2023-04-03T05:18:35;19.67;;;18.67;;
1995;SDS011;38556;47.068;15.408;2023-04-03T05:21:02;18.40;;;17.60;;
1995;SDS011;38556;47.068;15.408;2023-04-03T05:23:29;19.17;;;18.38;;
1995;SDS011;38556;47.068;15.408;2023-04-03T05:25:57;19.15;;;18.35;;
1995;SDS011;38556;47.068;15.408;2023-04-03T05:28:24;19.35;;;18.55;;
1995;SDS011;38556;47.068;15.408;2023-04-03T05:30:54;18.65;;;17.85;;
1995;SDS011;38556;47.068;15.408;2023-04-03T05:33:25;19.08;;;18.08;;
1995;SDS011;38556;47.068;15.408;2023-04-03T05:35:52;17.73;;;17.02;;
1995;SDS011;38556;47.068;15.408;2023-04-03T05:38:20;18.85;;;17.60;;
1995;SDS011;38556;47.068;15.408;2023-04-03T05:40:47;18.50;;;17.70;;
1995;SDS011;38556;47.068;15.408;2023-04-03T05:43:15;18.73;;;17.75;;
1995;SDS011;38556;47.068;15.408;2023-04-03T05:45:42;17.60;;;16.90;;
1995;SDS011;38556;47.068;15.408;2023-04-03T05:48:10;17.75;;;17.05;;
1995;SDS011;38556;47.068;15.408;2023-04-03T05:50:39;18.00;;;17.30;;
1995;SDS011;38556;47.068;15.408;2023-04-03T05:53:09;18.27;;;17.35;;
1995;SDS011;38556;47.068;15.408;2023-04-03T05:55:43;17.92;;;17.17;;
1995;SDS011;38556;47.068;15.408;2023-04-03T05:58:11;18.10;;;17.30;;
1995;SDS011;38556;47.068;15.408;2023-04-03T06:00:38;17.27;;;16.58;;
1995;SDS011;38556;47.068;15.408;2023-04-03T06:03:06;17.50;;;16.80;;
1995;SDS011;38556;47.068;15.408;2023-04-03T06:05:34;17.10;;;16.40;;
1995;SDS011;38556;47.068;15.408;2023-04-03T06:08:02;17.95;;;16.90;;
1995;SDS011;38556;47.068;15.408;2023-04-03T06:10:30;17.95;;;17.15;;
1995;SDS011;38556;47.068;15.408;2023-04-03T06:12:57;17.83;;;17.02;;
1995;SDS011;38556;47.068;15.408;2023-04-03T06:15:25;17.20;;;16.50;;
1995;SDS011;38556;47.068;15.408;2023-04-03T06:17:52;17.30;;;16.60;;
1995;SDS011;38556;47.068;15.408;2023-04-03T06:20:20;17.45;;;16.75;;
1995;SDS011;38556;47.068;15.408;2023-04-03T06:22:47;17.33;;;16.63;;
1995;SDS011;38556;47.068;15.408;2023-04-03T06:25:17;17.27;;;16.58;;
1995;SDS011;38556;47.068;15.408;2023-04-03T06:27:44;17.15;;;16.45;;
1995;SDS011;38556;47.068;15.408;2023-04-03T06:30:12;17.70;;;16.90;;
1995;SDS011;38556;47.068;15.408;2023-04-03T06:32:40;17.00;;;16.30;;
1995;SDS011;38556;47.068;15.408;2023-04-03T06:35:08;19.95;;;18.95;;
1995;SDS011;38556;47.068;15.408;2023-04-03T06:37:36;19.10;;;18.30;;
1995;SDS011;38556;47.068;15.408;2023-04-03T06:40:04;19.20;;;18.50;;
1995;SDS011;38556;47.068;15.408;2023-04-03T06:42:33;19.30;;;18.50;;
1995;SDS011;38556;47.068;15.408;2023-04-03T06:45:01;19.23;;;18.52;;
1995;SDS011;38556;47.068;15.408;2023-04-03T06:47:29;18.88;;;18.17;;
1995;SDS011;38556;47.068;15.408;2023-04-03T06:49:56;19.73;;;18.83;;
1995;SDS011;38556;47.068;15.408;2023-04-03T06:52:23;20.35;;;19.35;;
1995;SDS011;38556;47.068;15.408;2023-04-03T06:54:52;20.10;;;19.20;;
1995;SDS011;38556;47.068;15.408;2023-04-03T06:57:22;20.35;;;19.35;;
1995;SDS011;38556;47.068;15.408;2023-04-03T06:59:51;20.08;;;18.95;;
1995;SDS011;38556;47.068;15.408;2023-04-03T07:02:18;19.60;;;18.70;;
1995;SDS011;38556;47.068;15.408;2023-04-03T07:04:46;19.35;;;18.50;;
1995;SDS011;38556;47.068;15.408;2023-04-03T07:07:13;18.90;;;18.00;;
1995;SDS011;38556;47.068;15.408;2023-04-03T07:09:43;18.40;;;17.70;;
1995;SDS011;38556;47.068;15.408;2023-04-03T07:12:11;19.98;;;19.05;;
1995;SDS011;38556;47.068;15.408;2023-04-03T07:14:39;18.88;;;18.10;;
1995;SDS011;38556;47.068;15.408;2023-04-03T07:17:08;17.77;;;17.08;;
1995;SDS011;38556;47.068;15.408;2023-04-03T07:19:36;18.35;;;17.65;;
1995;SDS011;38556;47.068;15.408;2023-04-03T07:22:03;18.77;;;17.95;;
1995;SDS011;38556;47.068;15.408;2023-04-03T07:24:30;17.92;;;17.23;;
1995;SDS011;38556;47.068;15.408;2023-04-03T07:26:58;19.40;;;18.52;;
1995;SDS011;38556;47.068;15.408;2023-04-03T07:29:26;18.98;;;18.27;;
1995;SDS011;38556;47.068;15.408;2023-04-03T07:31:53;20.00;;;19.20;;
1995;SDS011;38556;47.068;15.408;2023-04-03T07:34:23;19.77;;;18.70;;
1995;SDS011;38556;47.068;15.408;2023-04-03T07:36:51;20.52;;;18.88;;
1995;SDS011;38556;47.068;15.408;2023-04-03T07:39:18;19.45;;;18.65;;
1995;SDS011;38556;47.068;15.408;2023-04-03T07:41:46;18.70;;;17.90;;
1995;SDS011;38556;47.068;15.408;2023-04-03T07:44:13;18.90;;;18.20;;
1995;SDS011;38556;47.068;15.408;2023-04-03T07:46:40;19.60;;;18.70;;
1995;SDS011;38556;47.068;15.408;2023-04-03T07:49:08;18.88;;;18.00;;
1995;SDS011;38556;47.068;15.408;2023-04-03T07:51:37;19.67;;;18.88;;
1995;SDS011;38556;47.068;15.408;2023-04-03T07:54:05;19.35;;;18.33;;
1995;SDS011;38556;47.068;15.408;2023-04-03T07:56:32;19.25;;;18.35;;
1995;SDS011;38556;47.068;15.408;2023-04-03T07:59:00;19.75;;;18.95;;
1995;SDS011;38556;47.068;15.408;2023-04-03T08:01:28;20.90;;;20.00;;
1995;SDS011;38556;47.068;15.408;2023-04-03T08:03:58;20.38;;;19.52;;
1995;SDS011;38556;47.068;15.408;2023-04-03T08:06:26;20.73;;;19.92;;
1995;SDS011;38556;47.068;15.408;2023-04-03T08:08:56;20.60;;;19.67;;
1995;SDS011;38556;47.068;15.408;2023-04-03T08:11:24;20.73;;;19.83;;
1995;SDS011;38556;47.068;15.408;2023-04-03T08:13:52;19.85;;;19.00;;
1995;SDS011;38556;47.068;15.408;2023-04-03T08:16:21;20.85;;;19.95;;
1995;SDS011;38556;47.068;15.408;2023-04-03T08:18:50;20.30;;;19.40;;
1995;SDS011;38556;47.068;15.408;2023-04-03T08:21:18;20.80;;;19.77;;
1995;SDS011;38556;47.068;15.408;2023-04-03T08:23:47;20.25;;;19.45;;
1995;SDS011;38556;47.068;15.408;2023-04-03T08:26:18;20.73;;;19.50;;
1995;SDS011;38556;47.068;15.408;2023-04-03T08:28:47;20.15;;;19.25;;
1995;SDS011;38556;47.068;15.408;2023-04-03T08:31:15;19.77;;;18.98;;
1995;SDS011;38556;47.068;15.408;2023-04-03T08:33:44;20.48;;;19.58;;
1995;SDS011;38556;47.068;15.408;2023-04-03T08:36:19;19.58;;;18.73;;
1995;SDS011;38556;47.068;15.408;2023-04-03T08:38:47;19.30;;;18.50;;
1995;SDS011;38556;47.068;15.408;2023-04-03T08:41:19;19.50;;;18.60;;
1995;SDS011;38556;47.068;15.408;2023-04-03T08:44:01;20.40;;;19.60;;
1995;SDS011;38556;47.068;15.408;2023-04-03T08:46:42;19.20;;;18.40;;
1995;SDS011;38556;47.068;15.408;2023-04-03T08:49:19;19.55;;;18.70;;
1995;SDS011;38556;47.068;15.408;2023-04-03T08:51:51;19.40;;;18.60;;
1995;SDS011;38556;47.068;15.408;2023-04-03T08:54:21;20.92;;;20.13;;
1995;SDS011;38556;47.068;15.408;2023-04-03T08:56:56;21.33;;;20.33;;
1995;SDS011;38556;47.068;15.408;2023-04-03T08:59:28;21.38;;;20.48;;
1995;SDS011;38556;47.068;15.408;2023-04-03T09:02:00;20.42;;;19.63;;
1995;SDS011;38556;47.068;15.408;2023-04-03T09:04:32;20.95;;;19.83;;
1995;SDS011;38556;47.068;15.408;2023-04-03T09:07:02;18.75;;;18.05;;
1995;SDS011;38556;47.068;15.408;2023-04-03T09:09:36;19.92;;;19.13;;
1995;SDS011;38556;47.068;15.408;2023-04-03T09:12:12;20.02;;;19.13;;
1995;SDS011;38556;47.068;15.408;2023-04-03T09:14:45;20.17;;;19.30;;
1995;SDS011;38556;47.068;15.408;2023-04-03T09:17:21;19.70;;;18.90;;
1995;SDS011;38556;47.068;15.408;2023-04-03T09:19:56;20.30;;;19.20;;
1995;SDS011;38556;47.068;15.408;2023-04-03T09:22:31;19.10;;;18.30;;
1995;SDS011;38556;47.068;15.408;2023-04-03T09:25:03;20.00;;;19.20;;
1995;SDS011;38556;47.068;15.408;2023-04-03T09:27:37;20.77;;;19.80;;
1995;SDS011;38556;47.068;15.408;2023-04-03T09:30:05;19.55;;;18.67;;
1995;SDS011;38556;47.068;15.408;2023-04-03T09:32:39;19.30;;;18.52;;
1995;SDS011;38556;47.068;15.408;2023-04-03T09:35:14;20.48;;;19.58;;
1995;SDS011;38556;47.068;15.408;2023-04-03T09:37:46;20.23;;;19.30;;
1995;SDS011;38556;47.068;15.408;2023-04-03T09:40:28;19.15;;;18.35;;
1995;SDS011;38556;47.068;15.408;2023-04-03T09:43:02;20.40;;;19.50;;
1995;SDS011;38556;47.068;15.408;2023-04-03T09:45:48;20.00;;;19.20;;
1995;SDS011;38556;47.068;15.408;2023-04-03T09:48:18;21.23;;;20.23;;
1995;SDS011;38556;47.068;15.408;2023-04-03T09:53:34;21.90;;;21.00;;
1995;SDS011;38556;47.068;15.408;2023-04-03T09:56:04;21.95;;;21.05;;
1995;SDS011;38556;47.068;15.408;2023-04-03T09:58:49;21.77;;;20.70;;
1995;SDS011;38556;47.068;15.408;2023-04-03T10:01:33;21.15;;;20.25;;
1995;SDS011;38556;47.068;15.408;2023-04-03T10:04:04;21.20;;;20.20;;
1995;SDS011;38556;47.068;15.408;2023-04-03T10:06:36;21.00;;;20.20;;
1995;SDS011;38556;47.068;15.408;2023-04-03T10:09:17;20.95;;;20.15;;
1995;SDS011;38556;47.068;15.408;2023-04-03T10:11:56;21.75;;;20.95;;
1995;SDS011;38556;47.068;15.408;2023-04-03T10:14:29;21.00;;;20.20;;
1995;SDS011;38556;47.068;15.408;2023-04-03T10:16:58;21.73;;;20.83;;
1995;SDS011;38556;47.068;15.408;2023-04-03T10:19:34;21.83;;;20.92;;
1995;SDS011;38556;47.068;15.408;2023-04-03T10:22:09;21.67;;;20.67;;
1995;SDS011;38556;47.068;15.408;2023-04-03T10:24:52;20.15;;;19.35;;
1995;SDS011;38556;47.068;15.408;2023-04-03T10:27:30;20.45;;;19.50;;
1995;SDS011;38556;47.068;15.408;2023-04-03T10:30:20;20.73;;;19.92;;
1995;SDS011;38556;47.068;15.408;2023-04-03T10:32:58;20.30;;;19.50;;
1995;SDS011;38556;47.068;15.408;2023-04-03T10:35:37;20.80;;;19.90;;
1995;SDS011;38556;47.068;15.408;2023-04-03T10:38:14;20.25;;;19.23;;
1995;SDS011;38556;47.068;15.408;2023-04-03T10:40:50;20.75;;;19.95;;
1995;SDS011;38556;47.068;15.408;2023-04-03T10:43:28;21.42;;;20.52;;
1995;SDS011;38556;47.068;15.408;2023-04-03T10:46:04;20.52;;;19.63;;
1995;SDS011;38556;47.068;15.408;2023-04-03T10:48:42;21.30;;;20.40;;
1995;SDS011;38556;47.068;15.408;2023-04-03T10:51:24;21.10;;;20.00;;
1995;SDS011;38556;47.068;15.408;2023-04-03T10:53:57;19.73;;;18.92;;
1995;SDS011;38556;47.068;15.408;2023-04-03T10:56:33;20.10;;;19.20;;
1995;SDS011;38556;47.068;15.408;2023-04-03T10:59:07;20.95;;;20.02;;
1995;SDS011;38556;47.068;15.408;2023-04-03T11:01:58;20.27;;;19.48;;
1995;SDS011;38556;47.068;15.408;2023-04-03T11:04:30;20.33;;;19.42;;
1995;SDS011;38556;47.068;15.408;2023-04-03T11:07:02;20.95;;;20.08;;
1995;SDS011;38556;47.068;15.408;2023-04-03T11:09:35;22.15;;;21.05;;
1995;SDS011;38556;47.068;15.408;2023-04-03T11:12:09;20.25;;;19.35;;
1995;SDS011;38556;47.068;15.408;2023-04-03T11:14:39;21.55;;;20.65;;
1995;SDS011;38556;47.068;15.408;2023-04-03T11:17:18;20.50;;;19.70;;
1995;SDS011;38556;47.068;15.408;2023-04-03T11:19:52;22.30;;;21.30;;
1995;SDS011;38556;47.068;15.408;2023-04-03T11:22:27;20.70;;;19.80;;
1995;SDS011;38556;47.068;15.408;2023-04-03T11:25:02;20.55;;;19.65;;
1995;SDS011;38556;47.068;15.408;2023-04-03T11:27:35;20.35;;;19.45;;
1995;SDS011;38556;47.068;15.408;2023-04-03T11:30:09;20.00;;;19.20;;
1995;SDS011;38556;47.068;15.408;2023-04-03T11:32:51;19.52;;;18.70;;
1995;SDS011;38556;47.068;15.408;2023-04-03T11:35:34;20.95;;;20.02;;
1995;SDS011;38556;47.068;15.408;2023-04-03T11:38:02;19.00;;;18.20;;
1995;SDS011;38556;47.068;15.408;2023-04-03T11:40:33;18.75;;;17.95;;
1995;SDS011;38556;47.068;15.408;2023-04-03T11:43:06;19.40;;;18.60;;
1995;SDS011;38556;47.068;15.408;2023-04-03T11:45:53;19.05;;;18.25;;
1995;SDS011;38556;47.068;15.408;2023-04-03T11:48:45;19.30;;;18.50;;
1995;SDS011;38556;47.068;15.408;2023-04-03T11:51:37;18.60;;;17.70;;
1995;SDS011;38556;47.068;15.408;2023-04-03T12:09:24;18.92;;;18.10;;
1995;SDS011;38556;47.068;15.408;2023-04-03T12:11:54;19.00;;;18.20;;
1995;SDS011;38556;47.068;15.408;2023-04-03T12:14:23;19.90;;;19.10;;
1995;SDS011;38556;47.068;15.408;2023-04-03T12:16:52;19.40;;;18.50;;
1995;SDS011;38556;47.068;15.408;2023-04-03T12:19:32;19.40;;;18.60;;
1995;SDS011;38556;47.068;15.408;2023-04-03T12:22:10;19.88;;;19.08;;
1995;SDS011;38556;47.068;15.408;2023-04-03T12:24:42;19.13;;;18.23;;
1995;SDS011;38556;47.068;15.408;2023-04-03T12:30:11;19.60;;;18.80;;
1995;SDS011;38556;47.068;15.408;2023-04-03T12:32:49;19.02;;;18.30;;
1995;SDS011;38556;47.068;15.408;2023-04-03T12:35:27;19.95;;;19.05;;
1995;SDS011;38556;47.068;15.408;2023-04-03T12:41:11;19.63;;;18.55;;
1995;SDS011;38556;47.068;15.408;2023-04-03T12:43:53;20.42;;;19.42;;
1995;SDS011;38556;47.068;15.408;2023-04-03T12:46:43;19.23;;;18.42;;
1995;SDS011;38556;47.068;15.408;2023-04-03T12:49:17;20.00;;;19.20;;
1995;SDS011;38556;47.068;15.408;2023-04-03T12:51:56;19.65;;;18.85;;
1995;SDS011;38556;47.068;15.408;2023-04-03T12:54:26;19.70;;;18.90;;
1995;SDS011;38556;47.068;15.408;2023-04-03T12:57:12;20.08;;;19.17;;
1995;SDS011;38556;47.068;15.408;2023-04-03T12:59:47;19.65;;;18.75;;
1995;SDS011;38556;47.068;15.408;2023-04-03T13:02:20;19.80;;;18.90;;
1995;SDS011;38556;47.068;15.408;2023-04-03T13:04:50;19.98;;;19.00;;
1995;SDS011;38556;47.068;15.408;2023-04-03T13:07:19;19.40;;;18.40;;
1995;SDS011;38556;47.068;15.408;2023-04-03T13:09:56;19.98;;;18.98;;
1995;SDS011;38556;47.068;15.408;2023-04-03T13:12:26;19.35;;;18.45;;
1995;SDS011;38556;47.068;15.408;2023-04-03T13:14:55;20.92;;;19.92;;
1995;SDS011;38556;47.068;15.408;2023-04-03T13:17:24;20.55;;;19.65;;
1995;SDS011;38556;47.068;15.408;2023-04-03T13:19:53;19.10;;;18.20;;
1995;SDS011;38556;47.068;15.408;2023-04-03T13:22:25;19.40;;;18.40;;
1995;SDS011;38556;47.068;15.408;2023-04-03T13:24:56;20.27;;;19.38;;
1995;SDS011;38556;47.068;15.408;2023-04-03T13:27:27;19.00;;;18.30;;
1995;SDS011;38556;47.068;15.408;2023-04-03T13:29:57;19.95;;;18.95;;
1995;SDS011;38556;47.068;15.408;2023-04-03T13:32:27;20.75;;;19.67;;
1995;SDS011;38556;47.068;15.408;2023-04-03T13:34:57;20.30;;;19.40;;
1995;SDS011;38556;47.068;15.408;2023-04-03T13:37:25;19.42;;;18.50;;
1995;SDS011;38556;47.068;15.408;2023-04-03T13:40:00;20.70;;;19.70;;
1995;SDS011;38556;47.068;15.408;2023-04-03T13:42:38;20.67;;;19.77;;
1995;SDS011;38556;47.068;15.408;2023-04-03T13:45:11;20.20;;;19.30;;
1995;SDS011;38556;47.068;15.408;2023-04-03T13:47:45;20.10;;;19.17;;
1995;SDS011;38556;47.068;15.408;2023-04-03T13:50:16;20.05;;;19.15;;
1995;SDS011;38556;47.068;15.408;2023-04-03T13:52:46;20.67;;;19.77;;
1995;SDS011;38556;47.068;15.408;2023-04-03T13:55:17;19.90;;;19.00;;
1995;SDS011;38556;47.068;15.408;2023-04-03T13:57:50;20.33;;;19.40;;
1995;SDS011;38556;47.068;15.408;2023-04-03T14:00:20;20.60;;;19.70;;
1995;SDS011;38556;47.068;15.408;2023-04-03T14:02:53;20.90;;;20.00;;
1995;SDS011;38556;47.068;15.408;2023-04-03T14:05:23;18.90;;;18.10;;
1995;SDS011;38556;47.068;15.408;2023-04-03T14:07:52;19.70;;;18.90;;
1995;SDS011;38556;47.068;15.408;2023-04-03T14:10:19;19.77;;;18.98;;
1995;SDS011;38556;47.068;15.408;2023-04-03T14:12:47;19.70;;;18.80;;
1995;SDS011;38556;47.068;15.408;2023-04-03T14:15:18;19.40;;;18.60;;
1995;SDS011;38556;47.068;15.408;2023-04-03T14:17:49;19.90;;;19.00;;
1995;SDS011;38556;47.068;15.408;2023-04-03T14:20:18;19.48;;;18.67;;
1995;SDS011;38556;47.068;15.408;2023-04-03T14:22:47;18.25;;;17.55;;
1995;SDS011;38556;47.068;15.408;2023-04-03T14:25:16;18.05;;;17.35;;
1995;SDS011;38556;47.068;15.408;2023-04-03T14:27:45;19.13;;;18.23;;
1995;SDS011;38556;47.068;15.408;2023-04-03T14:30:16;19.90;;;18.92;;
1995;SDS011;38556;47.068;15.408;2023-04-03T14:32:47;19.13;;;18.33;;
1995;SDS011;38556;47.068;15.408;2023-04-03T14:35:15;19.00;;;18.20;;
1995;SDS011;38556;47.068;15.408;2023-04-03T14:37:43;19.98;;;19.05;;
1995;SDS011;38556;47.068;15.408;2023-04-03T14:40:14;18.90;;;18.10;;
1995;SDS011;38556;47.068;15.408;2023-04-03T14:42:44;18.60;;;17.80;;
1995;SDS011;38556;47.068;15.408;2023-04-03T14:45:14;17.60;;;16.90;;
1995;SDS011;38556;47.068;15.408;2023-04-03T14:47:44;18.90;;;18.00;;
1995;SDS011;38556;47.068;15.408;2023-04-03T14:50:13;18.88;;;17.88;;
1995;SDS011;38556;47.068;15.408;2023-04-03T14:52:43;18.75;;;17.73;;
1995;SDS011;38556;47.068;15.408;2023-04-03T14:55:12;19.20;;;18.20;;
1995;SDS011;38556;47.068;15.408;2023-04-03T14:57:42;19.65;;;18.73;;
1995;SDS011;38556;47.068;15.408;2023-04-03T15:00:12;17.90;;;17.10;;
1995;SDS011;38556;47.068;15.408;2023-04-03T15:02:41;19.00;;;18.20;;
1995;SDS011;38556;47.068;15.408;2023-04-03T15:05:11;19.48;;;18.58;;